VAA weather

Vaasa Airport
Vaasa, Western Finland, Finland

Public forecast

Using degrees Celsius for public forecast. Weather courtesy of forecast.io.

Current aviation weather report (METAR) for Vaasa Airport

Retrieved 2020/08/06 06:50 UTC (15 minutes ago):

EFVA 060650Z AUTO 17005KT 9999 OVC005 15/14 Q1015 REDZ

Aviation forecast (TAF) for Vaasa Airport

Retrieved 2020/08/06 06:42 UTC (23 minutes ago):

TAF EFVA 060534Z 0606/0706 18007KT 9999 OVC012 TEMPO 0606/0608 3000 DZRA SCT004 BKN008 BECMG 0608/0610 BKN015 TEMPO 0620/0622 3000 BR BKN003 BECMG 0622/0624 0600 FG VV002